Latest METARs, TAFs and NOTAMs for LIRN


---------------------------------------------------------------------------
	(OBSERVATIONS)
LIRN 261250Z 20005G16KT 150V260 9999 FEW040 19/07 Q1017 NOSIG
LIRN 261220Z 20005G15KT 150V260 9999 SCT040 19/06 Q1017 NOSIG=
LIRN 261150Z 20006G23KT 160V250 9999 SCT040 18/07 Q1017 NOSIG=
LIRN 261120Z 18008G18KT 150V230 9999 SCT040 18/08 Q1018 NOSIG=
LIRN 261050Z 17007G17KT 110V230 9999 SCT025 17/09 Q1018 NOSIG=
LIRN 261020Z 18006G17KT 100V250 9999 SCT025 17/10 Q1018 NOSIG=
---------------------------------------------------------------------------
	(FC)
Sorry, FC For LIRN Not Found
---------------------------------------------------------------------------
	(TERMINAL AREA FORECAST)
LIRN 261100Z 2612/2712 29012KT 9999 SCT040
    BECMG 2620/2623 06008KT
    TEMPO 2703/2709 SHRA=
---------------------------------------------------------------------------
	(NOTAMS)


LIRN A0159/17 CIRCLING GUIDANCE LIGHTS (CGL) RWY 06 UNSERVICEABLE
    REF AIP AD 2 LIRN 2-1. 11 JAN 10:37 2017 UNTIL 10 APR 23:59
    2017 ESTIMATED. CREATED: 11 JAN 10:37 2017

LIRN A0160/17 DME ASSOCIATED WITH ILS RWY24 UNSERVICEABLE DUE
    TO TECR REF AIP AD 2 LIRN 1-7. 11 JAN 10:38 2017 UNTIL 10
    APR 23:59 2017 ESTIMATED. CREATED: 11 JAN 10:38 2017

LIRN A0162/17 TEANO VOR/DME 'TEA' FREQ 112.90MHZ CH 76X REMOTE
    STATUS INDICATOR NOT AVBL REF AIP AD 2 LIRN 1-9. 11 JAN 11:21
    2017 UNTIL 08 APR 23:59 2017 ESTIMATED. CREATED: 11 JAN 11:21
    2017

LIRN A0486/17 SUP 6/16 IN FORCE FM 15 SEP 2016 TO 31 MAR 2017
    EST NAPOLI/CAPODICHINO AD: TWY TN REFURBISHING AND NEW TWY
    P STATUS OF WORKING PHASES: - PHASE 1: ACTIVE - PHASE 2:
    ACTIVE - PHASE 3: SUSPENDED - PHASE 4: NOT ACT YET - PHASE
    5: NOT ACT YET - PHASE 6: ACTIVE - PHASE 7: ACTIVE - PHASE
    8: ACTIVE - PHASE 9: ACTIVE - PHASE 10: ACTIVE - PHASE 11:
    NOT ACT YET - PHASE 12: NOT ACT YET REF AIP AD 2 LIRN 2-1.1/12
    AND 2-5.1/12. 24 JAN 15:59 2017 UNTIL 31 MAR 23:59 2017 ESTIMATED.
    CREATED: 24 JAN 15:59 2017

LIRN A0719/17 PONZA VORTAC 'PNZ' FREQ 114.60MHZ CH 93X AVBL AS
    FLW: - VOR ON TEST DO NOT USE - TACAN OPERATIVE REF AIP AD
    2 LIRN 1-8. 02 FEB 10:04 2017 UNTIL 30 APR 22:59 2017 ESTIMATED.
    CREATED: 02 FEB 10:04 2017

LIRN A0814/16 REF AIP AD 2 LIRN 5-3 AND 5-7 INSTRUMENT APPROACH
    PROCEDURES ILS-Z RWY 24 ILS-W RWY 24 (ATC DISCRETION) MODIFY
    MISSED APPROACH AS FLW: AS SOON AS PRACTICABLE, CLIMBING
    TO 6000FT, TURN LEFT ON TR 180DEG, NOT BEFORE 1.3NM INPL
    DME (2.1NM NPC DME) WITH IAS MAX 180 KT, TO JOIN RDL/QDR
    342 SOR VOR/NDB BOUND TO GEMMA (4000FT MCA) THEN SOR VOR/NDB
    (6000FT). 10 FEB 16:39 2016 UNTIL PERM. CREATED: 10 FEB 16:39
    2016

LIRN A0815/16 REF AIP AD 2 LIRN 5-9 INSTRUMENT APPROACH PROCEDURE
    ILS-V RWY 24 (ATC DISCRETION) MODIFY MISSED APPROACH AS FLW:
    AS SOON AS PRACTICABLE, CLIMBING TO 6000FT, TURN LEFT ON
    TR 180DEG, NOT BEFORE 3.1NM POM DME, PASSING POM DME, WITH
    IAS MAX 180 KT, TO JOIN RDL/QDR 342 SOR VOR/NDB BOUND TO
    GEMMA (4000FT MCA) THEN SOR VOR/NDB (6000FT). 10 FEB 16:40
    2016 UNTIL PERM. CREATED: 10 FEB 16:40 2016

LIRN A0816/16 REF AIP AD 2 LIRN 5-11, 5-15 AND 5-17 INSTRUMENT
    APPROACH PROCEDURES LOC-Z RWY 24 LOC-W RWY 24 (ATC DISCRETION)
    LOC-V RWY 24 (ATC DISCRETION) MODIFY MISSED APPROACH AS FLW:
    ON MAPT CLIMB TO 6000FT AND TURN LEFT ON TR 180DEG (IAS MAX
    180 KT) TO JOIN RDL/QDR 342 SOR VOR/NDB BOUND TO GEMMA (4000FT
    MCA) THEN SOR VOR/NDB (6000FT). 10 FEB 16:42 2016 UNTIL PERM.
    CREATED: 10 FEB 16:42 2016

LIRN A0817/16 REF AIP AD 2 LIRN 5-13 INSTRUMENT APPROACH PROCEDURE
    LOC-Y RWY 24 MODIFY MISSED APPROACH AS FLW: ON MAPT CLIMB
    TO 6000FT AND TURN LEFT ON TR 180DEG (IAS MAX 180 KT) TO
    JOIN RDL/QDR 156 TEA VOR/NDB BOUND TO GEMMA (4000FT MCA)
    THEN PROCEED TO MISSED APPROACH HOLDING PATTERN. HOLD ON
    RDL/QDR 156 TEA VOR/NDB BETWEEN 40NM AND 44NM TEA DME, INBOUND
    TR 336DEG, LEFT TURNS, MHA 6000FT. 10 FEB 16:42 2016 UNTIL
    PERM. CREATED: 10 FEB 16:42 2016

LIRN A0818/16 REF AIP AD 2 LIRN 5-5 INSTRUMENT APPROACH PROCEDURE
    ILS-Y RWY24 MODIFY MISSED APPROACH AS FLW: AS SOON AS PRACTICABLE,
    CLIMBING TO 6000FT, TURN LEFT ON TR 180DEG, NOT BEFORE 1.3NM
    INPL DME (2.1NM NPC DME) WITH IAS MAX 180KT, TO JOIN RDL/QDR
    156 TEA VOR/NDB BOUND TO GEMMA (4000FT MCA) THEN PROCEED
    TO MISSED APPROACH HOLDING PATTERN. HOLD ON RDL/QDR 156 TEA
    VOR/NDB BETWEEN 40NM AND 44NM TEA DME, INBOUND TR 336DEG,
    LEFT TURNS, MHA 6000FT. 10 FEB 16:43 2016 UNTIL PERM. CREATED:
    10 FEB 16:43 2016

LIRN A0849/17 TAXIWAY 'H' ALL LIGHTS UNSERVICEABLE DUE TO TECR
    REF AIP AD 2 LIRN 2-1. 08 FEB 14:24 2017 UNTIL 04 APR 23:59
    2017 ESTIMATED. CREATED: 08 FEB 14:24 2017

LIRN A0856/17 TWY 'H' AVBL ONLY FOR MILITARY ACFT. DURING NIGHT
    TIME USE OF FOLLOW-ME IS COMPULSORY. REF AIP AD 2 LIRN 2-1.1.
    08 FEB 17:34 2017 UNTIL 04 APR 23:59 2017 ESTIMATED. CREATED:
    08 FEB 17:34 2017

LIRN A1210/17 PRECISION APPROACH PATH INDICATOR (PAPI) RWY24
    LEFT SIDE UNSERVICEABLE REF AIP AD 2 LIRN 1-5. 28 FEB 08:01
    2017 UNTIL 25 MAY 23:00 2017 ESTIMATED. CREATED: 28 FEB 08:02
    2017

LIRN A1381/17 NEW OBSTACLE ERECTED CRANE PENETRATING INNER HORIZONTAL
    SURFACE PSN COORD (WGS84)405229.80N 0141708.77E MAX ELEV
    AMSL 123.00M/403.54FT RMK: ICAO SIGNAL PROVIDED REF AOC TYPE
    B NR RN 2/1. 07 MAR 12:35 2017 UNTIL 30 APR 14:00 2017 ESTIMATED.
    CREATED: 07 MAR 12:35 2017

LIRN A1680/17 ALL STOPBARS AND ALL FIXED RED LIGHTS UNSERVICEABLE
    DUE TO TECR REF AIP AD 2 LIRN 2-1. 20 MAR 11:30 2017 UNTIL
    18 MAY 23:59 2017 ESTIMATED. CREATED: 20 MAR 11:30 2017

LIRN A1778/17 TAXIWAY 'M' CLOSED. REF AIP AD 2 LIRN 2-1. 23 MAR
    11:31 2017 UNTIL 21 JUN 04:00 2017 ESTIMATED. CREATED: 23
    MAR 11:31 2017

LIRN A1794/17 SORRENTO VOR/DME 'SOR' FREQ 112.20MHZ CH 59X AVBL
    AS FLW: - VOR UNSERVICEABLE DUE TO MAINT - DME OPR REF AIP
    AD 2 LIRN 1-9. 04 APR 07:30 2017 UNTIL 04 APR 09:00 2017.
    CREATED: 23 MAR 16:41 2017

LIRN A1795/17 NAPOLI CTR. APPROACH CONTROL SER PROVIDES ONLY
    RADAR MONITORING DUE TO APPARATUS ON MAINT. RADAR SERVICE
    NOT AVBL BELOW 6000FT. REF AIP AD 2 LIRN 1-7. 12 APR 21:00
    2017 UNTIL 13 APR 01:00 2017. CREATED: 23 MAR 16:42 2017

LIRN A1796/17 TEANO VOR/DME 'TEA' FREQ 112.90MHZ CH 76X AVAILABLE
    AS FOLLOWS: - VOR OPR - DME NOT AVAILABLE DUE TO MAINT REF
    AIP AD 2 LIRN 1-9. 05 APR 11:00 2017 UNTIL 05 APR 12:00 2017.
    CREATED: 23 MAR 16:53 2017

LIRN A1798/17 INSTRUMENT LANDING SYSTEM (ILS) RWY06 AVAILABILITY
    CANNOT BE GRANTED DUE TO SCHEDULED MAINT ACTIVITY IN PROGRESS.
    INSTRUMENT APPROACH PROCEDURES FOR RWY06 WILL BE AUTHORIZED
    BY ATC ACCORDING TO ACTUAL APPARATUS AVBL. WITH RWY06 IN
    USE AND ILS NOT AVBL, IFR ARR WILL BE INSTRUCTED FOR VOR
    OR CIRCLING PROCEDURE REF AIP AD 2 LIRN 1-7. 19 APR 00:00
    2017 UNTIL 19 APR 03:00 2017. CREATED: 23 MAR 16:55 2017

LIRN A1799/17 AERODROME CONTROL SER AVBL WO RADAR DUE TO APPARATUS
    ON MAINT. REF AIP AD 2 LIRN 1-7. 12 APR 21:00 2017 UNTIL
    13 APR 01:00 2017. CREATED: 23 MAR 16:56 2017

LIRN A1800/17 OUTER MARKER (ILS) RWY24 UNSERVICEABLE DUE TO MAINT.
    REF AIP AD 2 LIRN 1-7. 10 APR 08:00 2017 UNTIL 10 APR 09:00
    2017. CREATED: 23 MAR 16:56 2017

LIRN A1801/17 INSTRUMENT LANDING SYSTEM (ILS) RWY24 AVAILABILITY
    CANNOT BE GRANTED DUE TO SCHEDULED MAINT ACTIVITY IN PROGRESS.
    INSTRUMENT APPROACH PROCEDURES FOR RWY24 WILL BE AUTHORIZED
    BY ATC ACCORDING TO ACTUAL APPARATUS AVAILABILITY. WITH RWY24
    IN USE AND ILS NOT AVBL, IFR ARR WILL BE INSTRUCTED FOR CIRCLING
    PROCEDURE. REF AIP AD 2 LIRN 1-7. 13 APR 22:00 2017 UNTIL
    14 APR 03:00 2017. CREATED: 23 MAR 17:01 2017

LIRN A1805/17 AIRCRAFT STANDS '61' AND '62' CLOSED DUE TO WIP
    REF AIP AD 2 LIRN 2-5. 24 MAR 06:00 2017 UNTIL 30 MAR 04:00
    2017. CREATED: 23 MAR 17:37 2017

LIRN A1809/17 TAXIWAY 'A' CLOSED DUE TO WIP. REF AIP AD 2 LIRN
    2-1. 24 MAR 06:00 2017 UNTIL 29 MAR 21:00 2017 ESTIMATED.
    CREATED: 23 MAR 18:52 2017

LIRN A1810/17 AIRCRAFT STANDS 18, 19, 20, 21, 22, AND 23 CLOSED
    DUE TO WIP. REF AIP AD 2 LIRN 2-3. 24 MAR 06:00 2017 UNTIL
    29 MAR 21:00 2017 ESTIMATED. CREATED: 23 MAR 18:57 2017

LIRN A1811/17 APRON TAXIWAY BTN AIRCRAFT STAND 18 AND 23 CLOSED
    DUE TO WIP. REF AIP AD 2 LIRN 2-3. 24 MAR 06:00 2017 UNTIL
    29 MAR 21:00 2017 ESTIMATED. CREATED: 23 MAR 19:28 2017

LIRN F0015/07 [DEFENSE ENERGY SUPPORT CENTER ADVISORY] FUEL AVAILABILITY
    NOT AVAILABLE PHONE AHEAD FOR FUEL AVAILABILITY. 12 JUL 10:20
    2020 UNTIL 01 AUG 25:20 2020

---------------------------------------------------------------------------